CheckWX is a tool to help pilots better visualize weather data.  It is not intended as a substitute for an official pre-flight weather briefing.

12:29:14 UTC

KEFD TAF
Ellington Airport
Houston, Texas, USA
TAF KEFD 171200Z 1712/1818 VRB06KT 9999 SCT250 QNH2998INS BECMG 1720/1721 31006KT 9999 SCT050 SCT250 QNH2997INS BECMG 1800/1801 VRB06KT 9999 BKN030 BKN250 QNH3000INS BECMG 1811/1812 34006KT 9999 SKC QNH2997INS TX20/1721Z TN04/1712Z

Nov-17@
12:00 UTC

Nov-17 @ 12:00 UTC

Nov-17@
20:00 UTC

Nov-17 @ 20:00 UTC

TAF KEFD 171200Z 1712/1818 VRB06KT 9999 SCT250 QNH2998INS
Wind
  • Variable at 6 KTS
Cloud Levels
  • Scattered at 25,000' AGL

Nov-17@
20:00 UTC

Nov-17 @ 20:00 UTC

Nov-18@
00:00 UTC

Nov-18 @ 00:00 UTC

BECMG 1720/1721 31006KT 9999 SCT050 SCT250 QNH2997INS

Becoming

Becoming Conditions expected by Sun, Nov 17, 2019 @ 21:00 UTC

Wind
  • 310° at 6 KTS
Cloud Levels
  • Scattered at 5,000' AGL
  • Scattered at 25,000' AGL

Nov-18@
00:00 UTC

Nov-18 @ 00:00 UTC

Nov-18@
11:00 UTC

Nov-18 @ 11:00 UTC

BECMG 1800/1801 VRB06KT 9999 BKN030 BKN250 QNH3000INS

Becoming

Becoming Conditions expected by Mon, Nov 18, 2019 @ 01:00 UTC

Wind
  • Variable at 6 KTS
Cloud Levels
  • Broken at 3,000' AGL
  • Broken at 25,000' AGL

Nov-18@
11:00 UTC

Nov-18 @ 11:00 UTC

Nov-18@
18:00 UTC

Nov-18 @ 18:00 UTC

BECMG 1811/1812 34006KT 9999 SKC QNH2997INS TX20/1721Z TN04/1712Z

Becoming

Becoming Conditions expected by Mon, Nov 18, 2019 @ 12:00 UTC

Wind
  • 340° at 6 KTS
Cloud Levels
  • Clear skies